Nearby METAR Reports

 

KSJC - San Jose, California, USA
Distance from station: NE 14km
Aktualizace: 25/09/2017 01:53
Polojasno
Polojasno
 Wind from WNW
Vítr: WNW 26 km/h
Teplota: 27°C
Rosný bod: 4°C
Vlhkost: 23%
Tlak: 1012.5 hPa
Clouds: Polojasno
Visibility: 16 km
Cloud details: Few Clouds 1981 m
Polojasno 3048 m
Polojasno 4877 m
2017/09/24 23:53 KSJC 242353Z 30014KT 10SM FEW065 SCT100 SCT160 27/04 A2990 RMK AO2 SLP124 T02720039 10283 20222 56009 $
KNUQ - Moffett Nas/Mtn, California, USA
Distance from station: N 14km
Aktualizace: 25/09/2017 01:56
Jasno
Jasno
 Wind from NNW
Vítr: NNW 20 km/h
Teplota: 27°C
Rosný bod: 3°C
Vlhkost: 21%
Tlak: 1012.9 hPa
Clouds: Jasno
Visibility: 16 km
2017/09/24 23:56 KNUQ 242356Z 33011KT 10SM CLR 27/03 A2991 RMK AO2 SLP131 T02670028 10283 20228 55010
 
KPAO - Palo Alto, California, USA
Distance from station: NNW 23km
Aktualizace: 25/09/2017 01:47
Polojasno
Polojasno
 Wind from NNW
Vítr: NNW 20 km/h
Teplota: 28°C
Rosný bod: 8°C
Vlhkost: 28%
Tlak: 1012.9 hPa
Clouds: Polojasno
Visibility: 16 km
Cloud details: Polojasno 5486 m
2017/09/24 23:47 KPAO 242347Z 33011KT 10SM SCT180 28/08 A2991
KRHV - San Jose/Reid, California, USA
Distance from station: ENE 19km
Aktualizace: 25/09/2017 01:53
Polojasno
Polojasno
 Wind from NNW
Vítr: NNW 19 km/h
Teplota: 27°C
Rosný bod: 4°C
Vlhkost: 23%
Tlak: 1013.2 hPa
Clouds: Polojasno
Visibility: 16 km
Cloud details: Polojasno 4877 m
2017/09/24 23:53 KRHV 242353Z 34010KT 10SM SCT160 27/04 A2992
 
KOAK - Oakland, California, USA
Distance from station: NNW 50km
Aktualizace: 25/09/2017 01:53
Polojasno
Polojasno
 Wind from W
Vítr: W 30 km/h
Teplota: 24°C
Rosný bod: 8°C
Vlhkost: 36%
Tlak: 1012.5 hPa
Clouds: Polojasno
Visibility: 16 km
Cloud details: Few Clouds 5486 m
Polojasno 6706 m
2017/09/24 23:53 KOAK 242353Z 27016KT 10SM FEW180 SCT220 24/08 A2990 RMK AO2 SLP126 T02440078 10250 20183 56011
KSQL - San Carlos Airpo, California, USA
Distance from station: NW 34km
Aktualizace: 25/09/2017 01:47
Skoro zataženo
Skoro zataženo
 Wind from WNW
Vítr: WNW 22 km/h
Teplota: 27°C
Rosný bod: 1°C
Vlhkost: 18%
Tlak: 1013.2 hPa
Clouds: Skoro zataženo
Visibility: 16 km
Cloud details: Skoro zataženo 6096 m
2017/09/24 23:47 KSQL 242347Z 30012KT 10SM BKN200 27/01 A2992
 
KSFO - San Francisco, California, USA
Distance from station: NW 49km
Aktualizace: 25/09/2017 01:56
Few Clouds
Few Clouds
 Wind from W
Vítr: W 37 km/h, Nárazy: 46 km/h
Teplota: 25°C
Rosný bod: 1°C
Vlhkost: 21%
Tlak: 1012.9 hPa
Clouds: Few Clouds
Visibility: 16 km
Cloud details: Few Clouds 6096 m
2017/09/24 23:56 KSFO 242356Z 27020G25KT 10SM FEW200 25/01 A2991 RMK AO2 SLP129 T02500011 10261 20194 55006
KE16 - San Martin, California, USA
Distance from station: ESE 43km
Aktualizace: 25/09/2017 02:35
Jasno
Jasno
 Wind from NW
Vítr: NW 24 km/h, Nárazy: 33 km/h
Teplota: 27°C
Rosný bod: 0°C
Vlhkost: 17%
Tlak: 1012.5 hPa
Clouds: Jasno
Visibility: 16 km
2017/09/25 00:35 KE16 250035Z AUTO 31013G18KT 270V330 10SM CLR 27/00 A2990 RMK AO2
 
KWVI - Watsonville, California, USA
Distance from station: SSE 44km
Aktualizace: 25/09/2017 01:53
Jasno
Jasno
 Wind from SSW
Vítr: SSW 9 km/h
Teplota: 22°C
Rosný bod: 13°C
Vlhkost: 57%
Tlak: 1012.5 hPa
Clouds: Jasno
Visibility: 16 km
2017/09/24 23:53 KWVI 242353Z AUTO 21005KT 10SM CLR 22/13 A2990 RMK AO2 SLP125 T02220128 10261 20217 56009
KHAF - Half Moon Bay, California, USA
Distance from station: WNW 50km
Aktualizace: 25/09/2017 02:35
Jasno
Jasno
 Wind from NNW
Vítr: NNW 22 km/h
Teplota: 19°C
Tlak: 1012.9 hPa
Clouds: Jasno
Visibility: 16 km
2017/09/25 00:35 KHAF 250035Z AUTO 33012KT 10SM CLR 19/ A2991 RMK AO2
 
KHWD - Hayward, California, USA
Distance from station: N 44km
Aktualizace: 25/09/2017 01:54
Jasno
Jasno
 Wind from WNW
Vítr: WNW 31 km/h
Teplota: 24°C
Rosný bod: 3°C
Vlhkost: 25%
Tlak: 1012.5 hPa
Clouds: Jasno
Visibility: 16 km
2017/09/24 23:54 KHWD 242354Z 30017KT 10SM CLR 24/03 A2990 RMK AO2 SLP135 T02440028 10272 20211 56009
KLVK - Livermore, California, USA
Distance from station: NNE 51km
Aktualizace: 25/09/2017 01:53
Jasno
Jasno
 Wind from N
Vítr: N 9 km/h
Teplota: 27°C
Rosný bod: -1°C
Vlhkost: 16%
Tlak: 1012.2 hPa
Clouds: Jasno
Visibility: 16 km
2017/09/24 23:53 KLVK 242353Z 35005KT 10SM CLR 27/M01 A2989 RMK AO2 SLP120 T02721006 10278 20217 56012